Time;durP1;ratioP1;P1;durP2;ratioP2;P2;SDS_P1;SDS_P2;PMS_P1;PMS_P2;Temp;Humidity;BMP_temperature;BMP_pressure;BME280_temperature;BME280_humidity;BME280_pressure;Samples;Min_cycle;Max_cycle;Signal;HPM_P1;HPM_P2
2022/02/11 00:00:01;;;;;;;14.50;2.53;;;5.00;99.90;;;;;;5007245;28;25050;-68
2022/02/11 00:02:17;;;;;;;16.38;2.80;;;5.00;99.90;;;;;;5011850;28;25121;-68
2022/02/11 00:05:15;;;;;;;18.45;2.80;;;5.00;99.90;;;;;;4990681;28;25088;-71
2022/02/11 00:07:40;;;;;;;12.40;2.58;;;5.00;99.90;;;;;;5007628;28;25131;-68
2022/02/11 00:10:06;;;;;;;16.58;4.43;;;5.00;99.90;;;;;;5023769;28;25167;-69
2022/02/11 00:12:34;;;;;;;18.58;2.45;;;5.00;99.90;;;;;;5014623;28;25079;-71
2022/02/11 00:17:31;;;;;;;14.70;3.60;;;5.10;99.90;;;;;;5007130;28;25077;-70
2022/02/11 00:19:57;;;;;;;15.60;2.85;;;5.10;99.90;;;;;;5014384;28;25079;-70
2022/02/11 00:22:23;;;;;;;20.25;3.33;;;5.20;99.90;;;;;;5027789;28;25068;-70
2022/02/11 00:24:51;;;;;;;20.52;4.18;;;5.20;99.90;;;;;;5022489;28;25160;-70
2022/02/11 00:32:51;;;;;;;23.02;4.22;;;5.40;99.90;;;;;;5032530;28;25108;-69
2022/02/11 00:37:50;;;;;;;;;;;5.40;99.90;;;;;;5026959;28;25080;-70
2022/02/11 00:43:42;;;;;;;15.80;2.90;;;5.50;99.90;;;;;;5024101;28;25075;-66
2022/02/11 00:46:02;;;;;;;17.83;3.20;;;5.60;99.90;;;;;;5030574;28;25076;-67
2022/02/11 01:04:44;;;;;;;16.73;2.90;;;5.80;99.90;;;;;;5009111;28;25082;-69
2022/02/11 01:07:10;;;;;;;25.40;4.57;;;5.80;99.90;;;;;;5010839;28;25146;-70
2022/02/11 01:09:38;;;;;;;12.98;3.30;;;5.90;99.90;;;;;;5020023;28;25068;-69
2022/02/11 01:12:05;;;;;;;20.55;3.70;;;5.90;99.90;;;;;;5004160;28;25139;-69
2022/02/11 01:14:41;;;;;;;19.95;4.15;;;5.90;99.90;;;;;;5021247;28;25078;-72
2022/02/11 01:19:53;;;;;;;16.73;3.50;;;6.00;99.90;;;;;;5020723;28;25057;-68
2022/02/11 01:22:52;;;;;;;21.80;3.25;;;6.00;99.90;;;;;;5041680;28;25061;-68
2022/02/11 01:28:32;;;;;;;27.52;3.78;;;6.00;99.90;;;;;;5020576;28;25052;-72
2022/02/11 01:31:06;;;;;;;13.55;3.83;;;6.00;99.90;;;;;;5009741;28;25173;-70
2022/02/11 01:44:42;;;;;;;16.88;3.22;;;6.10;99.90;;;;;;5030247;28;25079;-69
2022/02/11 01:47:40;;;;;;;18.35;3.40;;;6.10;99.90;;;;;;5010806;28;25094;-71
2022/02/11 02:11:26;;;;;;;20.02;5.40;;;5.90;99.90;;;;;;5026860;28;25080;-72
2022/02/11 02:17:04;;;;;;;21.90;5.30;;;5.90;99.90;;;;;;5010383;28;25056;-70
2022/02/11 02:20:15;;;;;;;33.38;5.75;;;5.90;99.90;;;;;;5026265;28;25111;-70
2022/02/11 02:22:21;;;;;;;22.15;3.90;;;6.00;99.90;;;;;;5006150;28;25078;-71
2022/02/11 02:57:44;;;;;;;27.27;4.05;;;6.20;99.90;;;;;;5029930;28;24764;-69
2022/02/11 03:49:29;;;;;;;24.83;3.45;;;5.30;99.90;;;;;;5019588;28;25065;-69
2022/02/11 05:00:08;;;;;;;31.98;6.13;;;6.10;99.90;;;;;;5042966;28;25136;-69
2022/02/11 05:02:35;;;;;;;34.20;6.35;;;6.20;99.90;;;;;;5015434;28;25136;-69
2022/02/11 05:05:04;;;;;;;31.27;7.45;;;6.20;99.90;;;;;;5019659;28;25106;-68
2022/02/11 05:07:30;;;;;;;42.63;7.85;;;6.20;99.90;;;;;;4994111;28;25132;-69
2022/02/11 05:09:55;;;;;;;35.08;7.80;;;6.20;99.90;;;;;;5018874;28;25060;-70
2022/02/11 05:12:21;;;;;;;29.48;5.70;;;6.20;99.90;;;;;;5011981;28;25153;-69
2022/02/11 05:14:46;;;;;;;31.15;5.80;;;6.10;99.90;;;;;;5010505;28;25074;-70
2022/02/11 05:17:12;;;;;;;32.67;6.13;;;6.10;99.90;;;;;;4994592;28;25139;-69
2022/02/11 05:19:37;;;;;;;23.92;5.38;;;6.10;99.90;;;;;;4991036;28;25087;-71
2022/02/11 05:22:03;;;;;;;31.77;5.00;;;6.10;99.90;;;;;;5010856;28;25060;-69
2022/02/11 05:24:29;;;;;;;31.88;5.63;;;6.00;99.90;;;;;;5021558;28;25074;-70
2022/02/11 05:26:54;;;;;;;33.80;6.55;;;6.00;99.90;;;;;;5015225;28;25134;-69
2022/02/11 05:29:20;;;;;;;27.00;6.20;;;6.00;99.90;;;;;;5011579;28;25071;-68
2022/02/11 05:31:45;;;;;;;26.55;5.22;;;5.90;99.90;;;;;;5008863;28;25133;-71
2022/02/11 05:34:11;;;;;;;34.60;6.18;;;5.90;99.90;;;;;;4993441;28;25104;-69
2022/02/11 05:36:37;;;;;;;23.25;4.65;;;5.90;99.90;;;;;;5008631;28;25057;-70
2022/02/11 05:39:02;;;;;;;28.33;6.30;;;5.90;99.90;;;;;;5008528;28;25063;-66
2022/02/11 05:41:28;;;;;;;33.67;5.32;;;5.90;99.90;;;;;;5010783;28;25100;-69
2022/02/11 05:43:54;;;;;;;21.85;5.32;;;5.90;99.90;;;;;;5030211;28;25137;-66
2022/02/11 05:46:21;;;;;;;16.65;4.20;;;5.90;99.90;;;;;;5020208;28;25064;-68
2022/02/11 05:48:47;;;;;;;33.20;5.35;;;5.90;99.90;;;;;;5013474;28;25059;-69
2022/02/11 05:51:13;;;;;;;23.83;4.78;;;5.90;99.90;;;;;;5026566;28;25067;-70
2022/02/11 05:53:39;;;;;;;29.02;4.90;;;5.90;99.90;;;;;;5029497;28;25059;-70
2022/02/11 05:56:06;;;;;;;33.92;5.65;;;5.90;99.90;;;;;;5005100;28;25067;-68
2022/02/11 05:58:31;;;;;;;32.25;5.22;;;6.00;99.90;;;;;;5017068;28;25061;-68
2022/02/11 06:00:57;;;;;;;22.95;5.35;;;5.90;99.90;;;;;;5034331;28;25059;-71
2022/02/11 06:03:23;;;;;;;29.90;4.68;;;5.90;99.90;;;;;;5014793;28;25115;-71
2022/02/11 06:05:49;;;;;;;31.00;6.30;;;5.90;99.90;;;;;;5013369;28;25160;-69
2022/02/11 06:08:14;;;;;;;31.10;6.47;;;6.00;99.90;;;;;;5034199;28;25115;-71
2022/02/11 06:10:40;;;;;;;36.72;6.80;;;5.90;99.90;;;;;;5000438;28;25068;-70
2022/02/11 06:13:06;;;;;;;24.23;5.03;;;5.90;99.90;;;;;;5015034;28;25111;-68
2022/02/11 06:15:31;;;;;;;22.77;4.55;;;5.80;99.90;;;;;;5011232;28;25062;-67
2022/02/11 06:17:57;;;;;;;22.27;4.18;;;5.70;99.90;;;;;;5011254;28;25072;-66
2022/02/11 06:20:28;;;;;;;19.98;3.00;;;5.60;99.90;;;;;;5016729;28;25080;-68
2022/02/11 06:22:57;;;;;;;15.40;4.03;;;5.60;99.90;;;;;;5006137;28;25150;-68
2022/02/11 06:25:23;;;;;;;32.90;5.10;;;5.50;99.90;;;;;;5004869;28;25084;-69
2022/02/11 06:27:49;;;;;;;27.27;4.40;;;5.50;99.90;;;;;;5006862;28;25070;-69
2022/02/11 06:30:15;;;;;;;20.33;3.83;;;5.40;99.90;;;;;;4990913;28;25106;-70
2022/02/11 06:32:41;;;;;;;17.20;4.00;;;5.40;99.90;;;;;;5004323;28;25163;-69
2022/02/11 06:35:08;;;;;;;19.98;5.25;;;5.40;99.90;;;;;;5001846;28;25055;-70
2022/02/11 06:37:34;;;;;;;24.52;5.18;;;5.40;99.90;;;;;;5002929;28;25106;-69
2022/02/11 06:39:59;;;;;;;33.72;4.60;;;5.30;99.90;;;;;;5019106;28;25101;-69
2022/02/11 06:42:25;;;;;;;18.60;4.40;;;5.30;99.90;;;;;;5007169;28;25057;-70
2022/02/11 06:44:51;;;;;;;23.00;5.05;;;5.20;99.90;;;;;;5005848;28;25111;-69
2022/02/11 06:47:17;;;;;;;27.00;4.47;;;5.30;99.90;;;;;;5007284;28;25112;-69
2022/02/11 06:49:43;;;;;;;26.52;4.93;;;5.30;99.90;;;;;;5005879;28;25179;-69
2022/02/11 06:52:09;;;;;;;22.45;4.78;;;5.30;99.90;;;;;;4987646;28;25150;-69
2022/02/11 06:54:36;;;;;;;20.00;4.32;;;5.20;99.90;;;;;;5007006;28;25130;-70
2022/02/11 06:57:01;;;;;;;24.58;4.63;;;5.20;99.90;;;;;;5006007;28;25055;-69
2022/02/11 06:59:27;;;;;;;32.22;4.55;;;5.20;99.90;;;;;;4990543;28;25065;-69
2022/02/11 07:01:52;;;;;;;26.13;5.32;;;5.20;99.90;;;;;;4989441;28;25066;-69
2022/02/11 07:04:18;;;;;;;22.80;5.30;;;5.10;99.90;;;;;;5008704;28;25069;-69
2022/02/11 07:06:44;;;;;;;25.67;4.85;;;5.10;99.90;;;;;;5008974;28;25072;-68
2022/02/11 07:09:09;;;;;;;29.75;5.20;;;5.20;99.90;;;;;;5010284;28;25079;-68
2022/02/11 07:11:35;;;;;;;31.55;5.43;;;5.20;99.90;;;;;;5012034;28;25083;-69
2022/02/11 07:14:01;;;;;;;41.78;7.30;;;5.20;99.90;;;;;;5012671;28;25080;-67
2022/02/11 07:16:26;;;;;;;33.20;6.05;;;5.30;99.90;;;;;;5013357;28;25086;-69
2022/02/11 07:18:52;;;;;;;26.45;4.88;;;5.30;99.90;;;;;;5010405;28;25064;-69
2022/02/11 07:21:17;;;;;;;42.85;6.18;;;5.40;99.90;;;;;;5009886;28;25088;-67
2022/02/11 07:23:43;;;;;;;43.92;7.00;;;5.50;99.90;;;;;;5012495;28;25162;-69
2022/02/11 07:26:08;;;;;;;32.78;6.30;;;5.50;99.90;;;;;;5010389;28;25060;-67
2022/02/11 07:28:34;;;;;;;32.92;6.35;;;5.50;99.90;;;;;;5010729;28;25070;-66
2022/02/11 07:31:01;;;;;;;35.40;5.72;;;5.60;99.90;;;;;;5012947;28;25139;-66
2022/02/11 07:33:26;;;;;;;31.58;5.45;;;5.60;99.90;;;;;;4996348;28;25115;-67
2022/02/11 07:35:52;;;;;;;27.02;4.75;;;5.70;99.90;;;;;;5009300;28;25068;-68
2022/02/11 07:38:17;;;;;;;33.03;5.93;;;5.70;99.90;;;;;;5009272;28;25062;-65
2022/02/11 07:40:43;;;;;;;30.63;5.63;;;5.60;99.90;;;;;;5009401;28;25070;-67
2022/02/11 07:43:09;;;;;;;30.55;5.40;;;5.60;99.90;;;;;;5009395;28;25067;-68
2022/02/11 07:45:36;;;;;;;24.80;5.55;;;5.60;99.90;;;;;;5009989;28;25070;-68
2022/02/11 07:48:03;;;;;;;28.85;4.88;;;5.60;99.90;;;;;;5010815;28;25167;-68
2022/02/11 07:50:30;;;;;;;37.90;7.32;;;5.60;99.90;;;;;;5012437;28;25110;-68
2022/02/11 07:52:56;;;;;;;29.85;4.85;;;5.60;99.90;;;;;;5013082;28;25068;-66
2022/02/11 07:55:22;;;;;;;29.42;5.07;;;5.60;99.90;;;;;;5005753;28;25081;-66
2022/02/11 07:57:48;;;;;;;33.25;4.53;;;5.60;99.90;;;;;;4983945;28;25015;-69
2022/02/11 08:00:14;;;;;;;30.77;6.15;;;5.60;99.90;;;;;;4999750;28;25032;-66
2022/02/11 08:02:40;;;;;;;29.35;5.35;;;5.60;99.90;;;;;;4986071;28;25087;-66
2022/02/11 08:05:08;;;;;;;30.23;5.82;;;5.60;99.90;;;;;;5004075;28;25054;-71
2022/02/11 08:07:34;;;;;;;30.58;5.57;;;5.60;99.90;;;;;;5005538;28;25101;-68
2022/02/11 08:10:00;;;;;;;22.27;4.65;;;5.60;99.90;;;;;;5001648;28;25132;-67
2022/02/11 08:12:26;;;;;;;26.73;4.90;;;5.70;99.90;;;;;;5005239;28;25129;-69
2022/02/11 08:14:52;;;;;;;36.45;5.05;;;5.60;99.90;;;;;;5007189;28;25060;-67
2022/02/11 08:17:18;;;;;;;33.13;5.63;;;5.70;99.90;;;;;;4992535;28;25080;-66
2022/02/11 08:19:44;;;;;;;19.33;4.75;;;5.70;99.90;;;;;;5020215;28;25136;-69
2022/02/11 08:22:09;;;;;;;29.15;4.38;;;5.70;99.90;;;;;;5032103;28;25071;-69
2022/02/11 08:24:35;;;;;;;22.33;5.40;;;5.80;99.90;;;;;;5033508;28;25092;-70
2022/02/11 08:27:01;;;;;;;23.75;4.53;;;5.80;99.90;;;;;;5013525;28;25057;-69
2022/02/11 08:29:31;;;;;;;28.42;5.32;;;6.00;99.90;;;;;;5007379;28;25081;-70
2022/02/11 08:31:57;;;;;;;28.15;5.28;;;6.10;99.80;;;;;;5007428;28;25106;-69
2022/02/11 08:34:24;;;;;;;20.48;5.22;;;6.10;99.40;;;;;;5007897;28;25093;-68
2022/02/11 08:36:49;;;;;;;33.17;5.72;;;6.10;99.70;;;;;;5008563;28;25104;-70
2022/02/11 08:39:16;;;;;;;27.50;5.20;;;6.00;99.70;;;;;;4991087;28;25142;-69
2022/02/11 08:41:42;;;;;;;18.73;4.88;;;5.70;99.90;;;;;;4989987;28;25093;-70
2022/02/11 08:44:07;;;;;;;21.98;4.65;;;5.60;99.90;;;;;;5008359;28;25093;-70
2022/02/11 08:46:33;;;;;;;34.38;6.10;;;5.60;99.90;;;;;;5007589;28;25101;-68
2022/02/11 08:48:59;;;;;;;23.90;6.28;;;5.40;99.90;;;;;;5008194;28;25073;-67
2022/02/11 08:51:25;;;;;;;23.48;5.05;;;5.00;99.90;;;;;;5007586;28;25057;-68
2022/02/11 08:53:51;;;;;;;27.88;6.00;;;4.80;99.90;;;;;;5007525;28;25079;-68
2022/02/11 08:56:17;;;;;;;20.90;3.88;;;4.80;99.90;;;;;;5009612;28;25074;-68
2022/02/11 08:58:44;;;;;;;20.50;5.05;;;4.80;99.90;;;;;;5010846;28;25068;-69
2022/02/11 09:01:10;;;;;;;27.40;5.22;;;4.90;99.90;;;;;;5011660;28;25078;-68
2022/02/11 09:03:36;;;;;;;18.92;4.40;;;5.00;99.90;;;;;;5012237;28;25070;-69
2022/02/11 09:06:06;;;;;;;24.05;4.53;;;5.10;99.90;;;;;;5004693;28;25106;-70
2022/02/11 09:08:35;;;;;;;24.52;4.80;;;5.10;99.90;;;;;;5021447;28;25115;-71
2022/02/11 09:11:03;;;;;;;32.58;4.50;;;5.20;99.90;;;;;;4998836;28;25079;-71
2022/02/11 09:13:28;;;;;;;39.20;5.57;;;5.40;99.90;;;;;;4997306;28;25133;-68
2022/02/11 09:15:55;;;;;;;19.45;4.68;;;5.50;99.40;;;;;;5012828;28;25074;-71
2022/02/11 09:18:22;;;;;;;32.88;6.03;;;5.60;98.70;;;;;;5012053;28;25120;-68
2022/02/11 09:20:48;;;;;;;27.73;5.40;;;5.70;98.20;;;;;;5013168;28;25052;-69
2022/02/11 09:23:15;;;;;;;31.15;5.47;;;5.80;97.60;;;;;;5015925;28;25060;-70
2022/02/11 09:25:41;;;;;;;25.23;5.78;;;5.80;96.90;;;;;;5016409;28;25076;-72
2022/02/11 09:28:06;;;;;;;18.23;4.40;;;5.90;96.70;;;;;;5022244;28;25164;-70
2022/02/11 09:30:33;;;;;;;29.35;4.47;;;6.00;97.30;;;;;;5006272;28;25105;-68
2022/02/11 09:32:59;;;;;;;20.73;4.68;;;6.00;96.00;;;;;;5023695;28;25144;-70
2022/02/11 09:35:30;;;;;;;19.55;3.85;;;6.10;94.70;;;;;;4998727;28;25161;-72
2022/02/11 09:37:57;;;;;;;24.05;4.03;;;6.10;93.70;;;;;;5001815;28;25066;-72
2022/02/11 09:40:23;;;;;;;27.95;4.35;;;6.10;92.90;;;;;;5001317;28;25074;-69
2022/02/11 09:42:52;;;;;;;29.65;4.03;;;6.20;92.40;;;;;;5002471;28;25067;-71
2022/02/11 09:45:20;;;;;;;19.60;3.85;;;6.20;93.20;;;;;;5001147;28;25055;-71
2022/02/11 09:47:46;;;;;;;18.70;3.55;;;6.30;91.90;;;;;;5021404;28;25043;-70
2022/02/11 09:50:13;;;;;;;17.20;4.18;;;6.30;92.10;;;;;;5022651;28;25059;-66
2022/02/11 09:52:43;;;;;;;18.33;4.00;;;6.30;92.30;;;;;;5027531;28;25068;-72
2022/02/11 09:55:40;;;;;;;37.80;4.25;;;6.40;92.10;;;;;;5023805;28;25133;-69
2022/02/11 09:58:36;;;;;;;17.70;3.92;;;6.40;91.50;;;;;;5008703;28;25064;-72
2022/02/11 10:01:01;;;;;;;29.08;4.55;;;6.50;92.10;;;;;;5015809;28;25063;-73
2022/02/11 10:03:30;;;;;;;19.70;4.05;;;6.50;91.90;;;;;;4993052;28;25054;-72
2022/02/11 10:06:00;;;;;;;23.67;4.10;;;6.50;91.90;;;;;;5010492;28;25100;-72
2022/02/11 10:08:27;;;;;;;21.42;3.45;;;6.60;91.90;;;;;;5008746;28;25110;-70
2022/02/11 10:10:55;;;;;;;23.33;5.32;;;6.70;92.20;;;;;;5009892;28;25117;-68
2022/02/11 10:13:30;;;;;;;15.77;4.45;;;6.90;91.20;;;;;;5009917;28;25064;-69
2022/02/11 10:16:10;;;;;;;26.40;4.50;;;6.90;91.00;;;;;;4992999;28;25057;-69
2022/02/11 10:18:39;;;;;;;32.00;5.22;;;6.80;91.00;;;;;;5010785;28;25062;-69
2022/02/11 10:21:20;;;;;;;20.65;4.10;;;6.80;91.50;;;;;;5009850;28;25087;-71
2022/02/11 10:23:47;;;;;;;19.42;4.45;;;6.70;91.60;;;;;;5010919;28;25081;-70
2022/02/11 10:26:17;;;;;;;28.00;4.68;;;6.50;91.50;;;;;;5012995;28;25100;-69
2022/02/11 10:28:49;;;;;;;18.55;4.05;;;6.40;91.30;;;;;;5011768;28;25105;-72
2022/02/11 10:31:20;;;;;;;22.20;4.43;;;6.40;91.70;;;;;;5009917;28;25054;-70
2022/02/11 10:34:00;;;;;;;25.60;4.45;;;6.50;91.20;;;;;;5009907;28;25118;-69
2022/02/11 10:36:30;;;;;;;18.73;3.83;;;6.60;91.10;;;;;;4993208;28;25109;-70
2022/02/11 10:39:12;;;;;;;24.33;4.15;;;6.80;91.60;;;;;;5011172;28;25099;-68
2022/02/11 10:41:43;;;;;;;19.77;4.32;;;6.80;90.00;;;;;;4993792;28;25057;-69
2022/02/11 10:44:14;;;;;;;23.95;4.10;;;6.80;90.00;;;;;;4994666;28;25075;-67
2022/02/11 10:46:45;;;;;;;20.30;3.25;;;7.10;89.10;;;;;;5009897;28;25069;-70
2022/02/11 10:49:13;;;;;;;13.07;2.97;;;7.10;86.50;;;;;;5009834;28;25123;-70
2022/02/11 10:51:49;;;;;;;12.25;2.60;;;7.20;85.80;;;;;;5010116;28;25057;-69
2022/02/11 10:54:21;;;;;;;20.38;3.03;;;7.20;82.70;;;;;;5011060;28;25110;-70
2022/02/11 10:56:54;;;;;;;14.20;3.47;;;7.20;80.20;;;;;;5013822;28;25147;-70
2022/02/11 10:59:32;;;;;;;9.98;2.58;;;7.40;79.80;;;;;;5013826;28;25081;-68
2022/02/11 11:02:02;;;;;;;9.55;2.45;;;7.30;76.50;;;;;;4995942;28;25056;-70
2022/02/11 11:04:28;;;;;;;15.23;2.97;;;7.60;79.70;;;;;;5013051;28;25068;-67
2022/02/11 11:06:55;;;;;;;16.25;3.30;;;7.60;78.00;;;;;;5011755;28;25076;-69
2022/02/11 11:09:22;;;;;;;16.05;3.47;;;7.40;77.20;;;;;;4992379;28;25094;-70
2022/02/11 11:11:48;;;;;;;14.30;3.35;;;7.60;77.80;;;;;;5008364;28;25064;-69
2022/02/11 11:14:16;;;;;;;15.93;2.97;;;7.60;78.40;;;;;;5010207;28;25076;-70
2022/02/11 11:16:44;;;;;;;12.88;3.20;;;7.70;78.00;;;;;;4991988;28;25124;-68
2022/02/11 11:19:09;;;;;;;16.25;3.13;;;7.70;79.20;;;;;;4991198;28;25080;-69
2022/02/11 11:21:45;;;;;;;11.20;3.38;;;7.70;79.20;;;;;;5010769;28;25107;-68
2022/02/11 11:24:12;;;;;;;18.67;3.67;;;7.80;77.40;;;;;;5018003;28;25055;-69
2022/02/11 11:26:44;;;;;;;24.58;4.15;;;7.70;79.40;;;;;;5018059;28;25146;-68
2022/02/11 11:29:15;;;;;;;19.13;3.55;;;7.60;80.30;;;;;;5025067;28;25097;-69
2022/02/11 11:31:53;;;;;;;22.98;3.67;;;7.40;82.80;;;;;;5026085;28;25053;-70
2022/02/11 11:34:39;;;;;;;20.52;4.25;;;7.50;83.70;;;;;;5020391;28;25064;-68
2022/02/11 11:37:10;;;;;;;27.23;5.45;;;7.60;85.00;;;;;;4990163;28;25055;-68
2022/02/11 11:39:37;;;;;;;21.65;3.65;;;7.40;84.00;;;;;;4992294;28;25074;-71
2022/02/11 11:42:03;;;;;;;18.48;4.28;;;7.30;86.40;;;;;;5010039;28;25154;-70
2022/02/11 11:44:29;;;;;;;21.48;3.85;;;7.10;83.50;;;;;;5010698;28;25056;-69
2022/02/11 11:47:02;;;;;;;13.50;3.05;;;6.80;83.50;;;;;;5009469;28;25104;-70
2022/02/11 11:49:40;;;;;;;13.77;2.97;;;6.70;83.40;;;;;;4991008;28;25142;-70
2022/02/11 11:52:07;;;;;;;15.77;2.70;;;6.80;81.90;;;;;;4991468;28;25066;-70
2022/02/11 11:54:32;;;;;;;14.68;3.08;;;7.30;81.00;;;;;;5008084;28;25077;-70
2022/02/11 11:57:06;;;;;;;21.30;3.28;;;7.60;78.90;;;;;;5008212;28;25072;-70
2022/02/11 11:59:36;;;;;;;19.25;4.00;;;7.70;79.70;;;;;;4990638;28;25077;-70
2022/02/11 12:02:08;;;;;;;16.70;3.30;;;7.80;77.40;;;;;;5006468;28;25153;-70
2022/02/11 12:04:41;;;;;;;12.48;2.85;;;7.80;74.70;;;;;;5006715;28;25095;-71
2022/02/11 12:07:14;;;;;;;12.38;2.90;;;7.80;75.30;;;;;;5007199;28;25133;-70
2022/02/11 12:09:42;;;;;;;7.88;2.72;;;7.70;74.00;;;;;;5006847;28;25063;-71
2022/02/11 12:12:12;;;;;;;13.95;3.38;;;7.60;76.40;;;;;;5006787;28;25057;-71
2022/02/11 12:14:40;;;;;;;17.52;3.22;;;7.40;76.20;;;;;;5008099;28;24855;-71
2022/02/11 12:17:11;;;;;;;9.38;2.63;;;7.50;77.10;;;;;;5008666;28;25141;-70
2022/02/11 12:19:38;;;;;;;9.60;2.38;;;7.70;75.40;;;;;;5009590;28;25076;-70
2022/02/11 12:22:07;;;;;;;10.43;3.25;;;7.90;71.70;;;;;;4994195;28;25124;-71
2022/02/11 12:27:31;;;;;;;12.13;3.15;;;8.20;71.10;;;;;;5007875;28;25055;-70
2022/02/11 12:30:07;;;;;;;16.80;3.35;;;8.30;72.80;;;;;;5007265;28;25072;-72
2022/02/11 12:32:37;;;;;;;21.98;2.85;;;7.90;72.80;;;;;;5011338;28;25093;-70
2022/02/11 12:35:05;;;;;;;13.40;3.10;;;8.00;74.10;;;;;;5010494;28;25073;-70
2022/02/11 12:37:32;;;;;;;14.27;2.50;;;8.20;72.30;;;;;;5010674;28;25106;-69
2022/02/11 12:40:00;;;;;;;13.85;2.95;;;8.20;70.00;;;;;;5010138;28;25143;-72
2022/02/11 12:42:27;;;;;;;13.35;3.30;;;8.40;71.40;;;;;;5010065;28;25150;-70
2022/02/11 12:44:53;;;;;;;9.90;2.08;;;8.30;69.00;;;;;;5010992;28;25395;-72
2022/02/11 12:47:19;;;;;;;14.80;2.70;;;8.60;69.20;;;;;;5009887;28;25102;-73
2022/02/11 12:49:47;;;;;;;13.55;3.10;;;8.70;69.80;;;;;;5009867;28;25103;-71
2022/02/11 12:52:25;;;;;;;15.18;2.55;;;8.90;69.60;;;;;;5010754;28;25058;-72
2022/02/11 12:55:18;;;;;;;13.75;2.45;;;9.20;69.40;;;;;;5010441;28;25075;-71
2022/02/11 12:57:49;;;;;;;15.35;3.10;;;9.00;70.10;;;;;;4992229;28;25083;-72
2022/02/11 13:00:20;;;;;;;8.73;1.92;;;9.00;68.30;;;;;;5009794;28;25063;-72
2022/02/11 13:02:47;;;;;;;8.93;1.85;;;9.30;66.60;;;;;;5009699;28;25059;-71
2022/02/11 13:05:20;;;;;;;12.57;2.38;;;9.70;64.00;;;;;;5010571;28;25110;-71
2022/02/11 13:07:49;;;;;;;12.38;2.80;;;9.70;64.70;;;;;;5009906;28;25152;-71
2022/02/11 13:10:20;;;;;;;7.72;2.15;;;9.30;64.80;;;;;;5010351;28;25080;-73
2022/02/11 13:12:47;;;;;;;11.90;2.25;;;9.10;67.30;;;;;;5006929;28;25137;-71
2022/02/11 13:15:15;;;;;;;11.60;2.67;;;8.60;66.20;;;;;;5012044;28;25063;-70
2022/02/11 13:17:43;;;;;;;9.35;1.92;;;8.10;66.60;;;;;;5031258;28;25118;-70
2022/02/11 13:20:18;;;;;;;15.30;2.72;;;7.90;66.90;;;;;;5029740;28;25064;-71
2022/02/11 13:22:46;;;;;;;19.33;2.75;;;7.90;67.60;;;;;;5028962;28;25143;-70
2022/02/11 13:25:12;;;;;;;15.55;3.08;;;7.90;69.60;;;;;;5024979;28;25082;-71
2022/02/11 13:27:53;;;;;;;12.75;3.22;;;8.20;68.30;;;;;;5009979;28;25130;-71
2022/02/11 13:30:33;;;;;;;14.65;2.75;;;8.00;68.00;;;;;;5009914;28;25077;-70
2022/02/11 13:33:16;;;;;;;10.77;2.65;;;7.70;69.80;;;;;;5009160;28;25097;-69
2022/02/11 13:35:42;;;;;;;;;;;7.80;70.10;;;;;;5009333;28;25113;-71
2022/02/11 13:38:08;;;;;;;11.30;2.33;;;7.60;70.30;;;;;;5009557;28;25128;-72
2022/02/11 13:40:33;;;;;;;24.48;3.97;;;7.50;71.30;;;;;;5010539;28;25064;-68
2022/02/11 13:43:03;;;;;;;14.45;2.42;;;7.50;72.00;;;;;;5008037;28;25063;-70
2022/02/11 13:45:49;;;;;;;15.85;3.60;;;7.40;73.70;;;;;;5008058;28;25145;-69
2022/02/11 13:48:16;;;;;;;18.17;3.35;;;7.50;75.50;;;;;;5008869;28;25146;-69
2022/02/11 13:51:13;;;;;;;21.30;4.30;;;7.00;87.50;;;;;;5009298;28;25118;-70
2022/02/11 13:53:44;;;;;;;23.20;3.97;;;6.60;91.50;;;;;;5009416;28;25058;-70
2022/02/11 13:56:12;;;;;;;18.67;3.03;;;6.30;93.80;;;;;;4991895;28;25071;-69
2022/02/11 13:58:59;;;;;;;22.92;4.10;;;6.10;95.00;;;;;;5008369;28;25112;-70
2022/02/11 14:01:29;;;;;;;12.55;2.45;;;6.00;95.40;;;;;;5008419;28;25108;-69
2022/02/11 14:04:18;;;;;;;15.73;2.92;;;6.00;95.80;;;;;;5007850;28;25127;-69
2022/02/11 14:06:53;;;;;;;10.90;2.55;;;6.00;95.60;;;;;;5009392;28;25083;-69
2022/02/11 14:09:26;;;;;;;11.50;2.40;;;6.00;94.20;;;;;;5011483;28;25095;-68
2022/02/11 14:11:52;;;;;;;;;;;6.10;93.30;;;;;;5029559;28;25070;-68
2022/02/11 14:14:17;;;;;;;13.27;3.15;;;6.30;93.10;;;;;;5044362;28;24069;-70
2022/02/11 14:16:47;;;;;;;10.07;2.45;;;6.30;92.10;;;;;;5016816;28;25084;-69
2022/02/11 14:19:27;;;;;;;9.07;2.28;;;6.40;92.70;;;;;;5018007;28;25052;-69
2022/02/11 14:21:58;;;;;;;12.32;2.10;;;6.30;93.30;;;;;;5000573;28;25049;-70
2022/02/11 14:24:26;;;;;;;11.05;2.50;;;6.40;94.20;;;;;;5018664;28;25075;-70
2022/02/11 14:26:52;;;;;;;15.93;2.95;;;6.40;94.20;;;;;;5020582;28;25091;-70
2022/02/11 14:29:19;;;;;;;19.52;2.05;;;6.40;94.20;;;;;;5020734;28;25101;-69
2022/02/11 14:31:46;;;;;;;15.40;2.90;;;6.40;94.50;;;;;;5027677;28;25062;-71
2022/02/11 14:34:13;;;;;;;14.05;2.22;;;6.40;94.30;;;;;;5011025;28;25057;-71
2022/02/11 14:36:42;;;;;;;14.40;2.47;;;6.50;94.20;;;;;;5008593;28;25146;-70
2022/02/11 14:39:09;;;;;;;19.08;3.00;;;6.60;94.30;;;;;;4990464;28;25111;-72
2022/02/11 14:41:47;;;;;;;16.05;2.55;;;6.50;93.70;;;;;;5008831;28;25082;-70
2022/02/11 14:44:26;;;;;;;11.32;1.98;;;6.50;93.60;;;;;;5007661;28;25136;-70
2022/02/11 14:46:55;;;;;;;10.88;1.98;;;6.50;92.90;;;;;;5007482;28;24685;-70
2022/02/11 14:49:22;;;;;;;15.27;3.38;;;6.60;93.00;;;;;;5007459;28;25085;-70
2022/02/11 14:51:59;;;;;;;17.80;2.95;;;6.50;92.40;;;;;;5007579;28;25065;-69
2022/02/11 14:54:25;;;;;;;14.75;2.60;;;6.60;92.60;;;;;;5007011;28;25078;-72
2022/02/11 14:56:54;;;;;;;13.55;1.98;;;6.60;92.90;;;;;;5007274;28;25116;-71
2022/02/11 14:59:20;;;;;;;13.57;2.20;;;6.70;92.40;;;;;;4989511;28;25077;-70
2022/02/11 15:01:47;;;;;;;9.75;2.42;;;6.70;92.50;;;;;;5006940;28;25049;-70
2022/02/11 15:04:13;;;;;;;12.75;2.22;;;6.80;92.50;;;;;;4989534;28;25048;-69
2022/02/11 15:06:39;;;;;;;17.95;2.97;;;6.90;92.30;;;;;;4989235;28;25062;-69
2022/02/11 15:09:06;;;;;;;14.55;2.78;;;6.90;92.10;;;;;;4988754;28;25052;-69
2022/02/11 15:11:32;;;;;;;13.25;2.00;;;6.70;92.00;;;;;;5009366;28;25062;-70
2022/02/11 15:13:58;;;;;;;15.93;2.42;;;6.60;92.40;;;;;;5007994;28;25082;-68
2022/02/11 15:16:23;;;;;;;8.27;2.05;;;6.50;92.80;;;;;;5026081;28;25083;-69
2022/02/11 15:18:49;;;;;;;16.40;2.78;;;6.50;93.00;;;;;;5025663;28;25071;-71
2022/02/11 15:21:17;;;;;;;14.10;2.45;;;6.50;92.50;;;;;;5026129;28;25028;-70
2022/02/11 15:23:43;;;;;;;11.57;2.38;;;6.50;92.60;;;;;;5025923;28;25099;-71
2022/02/11 15:26:10;;;;;;;19.23;3.65;;;6.60;92.80;;;;;;5015046;28;25063;-70
2022/02/11 15:28:39;;;;;;;19.77;3.90;;;6.60;92.00;;;;;;5007117;28;25055;-69
2022/02/11 15:31:09;;;;;;;14.68;2.75;;;6.60;91.90;;;;;;5006731;28;25077;-69
2022/02/11 15:33:36;;;;;;;10.02;2.03;;;6.60;91.70;;;;;;5005615;28;25142;-69
2022/02/11 15:36:02;;;;;;;16.85;2.83;;;6.70;92.60;;;;;;5006450;28;25092;-70
2022/02/11 15:38:27;;;;;;;16.67;2.10;;;6.70;93.40;;;;;;5007711;28;25077;-70
2022/02/11 15:40:53;;;;;;;13.65;2.95;;;6.50;92.80;;;;;;5005797;28;25051;-69
2022/02/11 15:43:19;;;;;;;12.93;3.08;;;6.60;92.80;;;;;;5005692;28;25094;-69
2022/02/11 15:45:45;;;;;;;13.80;2.65;;;6.60;93.10;;;;;;5005508;28;25058;-69
2022/02/11 15:48:11;;;;;;;17.83;2.53;;;6.60;93.20;;;;;;5006404;28;25082;-69
2022/02/11 15:50:38;;;;;;;20.58;3.00;;;6.70;93.20;;;;;;4989893;28;25116;-68
2022/02/11 15:53:04;;;;;;;15.52;2.60;;;6.60;93.30;;;;;;5008259;28;25074;-69
2022/02/11 15:55:29;;;;;;;17.25;2.95;;;6.50;92.80;;;;;;4993563;28;25102;-70
2022/02/11 15:57:55;;;;;;;13.35;2.28;;;6.50;93.40;;;;;;5023048;28;25053;-70
2022/02/11 16:00:21;;;;;;;16.20;2.83;;;6.50;93.60;;;;;;5003561;28;25078;-70
2022/02/11 16:02:47;;;;;;;13.35;3.47;;;6.70;93.70;;;;;;5021323;28;25082;-70
2022/02/11 16:05:13;;;;;;;15.38;2.65;;;6.70;93.20;;;;;;5021234;28;25051;-69
2022/02/11 16:07:39;;;;;;;10.90;2.83;;;6.50;92.70;;;;;;5006452;28;25060;-70
2022/02/11 16:10:09;;;;;;;16.42;2.92;;;6.50;92.90;;;;;;4998403;28;25056;-69
2022/02/11 16:12:35;;;;;;;13.55;2.75;;;6.50;93.20;;;;;;4993153;28;25056;-70
2022/02/11 16:15:02;;;;;;;20.40;3.13;;;6.50;92.80;;;;;;4990132;28;25059;-70
2022/02/11 16:17:29;;;;;;;13.02;2.50;;;6.50;92.60;;;;;;5008111;28;25071;-69
2022/02/11 16:19:54;;;;;;;19.30;3.25;;;6.40;92.20;;;;;;4988246;28;25132;-69
2022/02/11 16:22:23;;;;;;;14.30;3.03;;;6.40;92.50;;;;;;5007489;28;25091;-69
2022/02/11 16:24:49;;;;;;;14.82;2.53;;;6.40;92.70;;;;;;5004972;28;25075;-69
2022/02/11 16:27:16;;;;;;;10.65;2.50;;;6.30;92.30;;;;;;5008437;28;25076;-68
2022/02/11 16:29:42;;;;;;;15.45;2.95;;;6.30;91.90;;;;;;4989774;28;25068;-69
2022/02/11 16:32:08;;;;;;;10.32;2.72;;;6.20;92.10;;;;;;5009352;28;25062;-69
2022/02/11 16:34:34;;;;;;;12.95;2.13;;;6.20;92.30;;;;;;5014188;28;25056;-69
2022/02/11 16:37:00;;;;;;;11.70;2.65;;;6.20;92.50;;;;;;5018630;28;25052;-69
2022/02/11 16:39:26;;;;;;;17.52;2.47;;;6.20;92.80;;;;;;5017608;28;25087;-70